Terminal Aerodrome Forecast
Issued by NWS Burlington, VT

Home | Current Version | Previous Version | Text Only | Print | Product List | Glossary On
Versions: 1 2 3 4 5 6 7 8 9 10 11 12 13 14 15
000
FTUS41 KBTV 050528
TAFBTV
TAF
KBTV 050528Z 0506/0606 28010G18KT P6SM FEW045 SCT090 BKN120
     FM050900 31008KT P6SM SCT045 BKN120
     FM051500 34009KT P6SM FEW060 BKN150
     FM060000 32004KT P6SM SCT200=

USA.gov is the U.S. government's official web portal to all federal, state and local government web resources and services.